createdAt,value
2018-09-24T00:01:04.317Z,35.87
2018-09-24T00:03:42.721Z,33.20
2018-09-24T00:06:21.778Z,87.60
2018-09-24T00:08:59.880Z,99.67
2018-09-24T00:11:39.016Z,66.43
2018-09-24T00:14:17.100Z,54.30
2018-09-24T00:16:55.820Z,115.47
2018-09-24T00:19:34.399Z,311.90
2018-09-24T00:22:12.997Z,304.63
2018-09-24T00:24:49.397Z,72.93
2018-09-24T00:27:27.821Z,98.00
2018-09-24T00:30:07.818Z,155.77
2018-09-24T00:32:46.522Z,262.33
2018-09-24T00:35:24.098Z,222.93
2018-09-24T00:38:18.104Z,117.70
2018-09-24T00:40:56.358Z,101.93
2018-09-24T00:43:34.617Z,77.87
2018-09-24T00:46:12.582Z,63.33
2018-09-24T00:48:50.738Z,72.47
2018-09-24T00:51:28.464Z,443.77
2018-09-24T00:54:06.942Z,291.40
2018-09-24T00:56:45.523Z,121.83
2018-09-24T00:59:25.459Z,267.50
2018-09-24T01:02:03.776Z,131.83
2018-09-24T01:04:42.278Z,342.60
2018-09-24T01:07:20.916Z,121.17
2018-09-24T01:10:00.056Z,282.73
2018-09-24T01:12:39.136Z,295.37
2018-09-24T01:15:17.756Z,288.80
2018-09-24T01:17:54.536Z,313.33
2018-09-24T01:20:33.143Z,505.10
2018-09-24T01:23:13.059Z,295.67
2018-09-24T01:25:50.557Z,247.03
2018-09-24T01:28:31.077Z,87.27
2018-09-24T01:31:08.836Z,80.57
2018-09-24T01:33:47.576Z,317.63
2018-09-24T01:36:25.764Z,168.13
2018-09-24T01:39:08.224Z,388.17
2018-09-24T01:41:46.324Z,354.97
2018-09-24T01:44:25.000Z,80.00
2018-09-24T01:47:03.064Z,120.07
2018-09-24T01:49:41.502Z,332.43
2018-09-24T01:52:20.087Z,318.67
2018-09-24T01:55:00.259Z,192.73
2018-09-24T01:57:39.598Z,129.60
2018-09-24T02:00:18.477Z,103.03
2018-09-24T02:02:57.057Z,428.23
2018-09-24T02:05:34.916Z,51.27
2018-09-24T02:08:14.079Z,236.93
2018-09-24T02:10:52.716Z,277.40
2018-09-24T02:13:31.936Z,148.90
2018-09-24T02:16:11.455Z,119.40
2018-09-24T02:18:51.198Z,203.17
2018-09-24T02:21:30.699Z,238.03
2018-09-24T02:24:10.599Z,233.77
2018-09-24T02:26:50.581Z,168.37
2018-09-24T02:29:29.574Z,79.17
2018-09-24T02:32:08.697Z,78.33
2018-09-24T02:34:49.201Z,124.87
2018-09-24T02:37:29.319Z,149.27
2018-09-24T02:40:07.717Z,154.63
2018-09-24T02:42:48.056Z,287.87
2018-09-24T02:45:26.934Z,190.43
2018-09-24T02:48:06.755Z,105.20
2018-09-24T02:51:00.417Z,134.73
2018-09-24T02:53:45.540Z,168.30
2018-09-24T02:56:25.917Z,173.23
2018-09-24T02:59:05.234Z,50.20
2018-09-24T03:01:44.976Z,165.10
2018-09-24T03:04:23.398Z,119.83
2018-09-24T03:07:01.419Z,251.23
2018-09-24T03:09:41.380Z,417.27
2018-09-24T03:12:21.940Z,677.40
2018-09-24T03:15:00.171Z,162.40
2018-09-24T03:17:39.296Z,342.50
2018-09-24T03:20:19.664Z,406.83
2018-09-24T03:22:59.286Z,507.27
2018-09-24T03:25:41.041Z,330.50
2018-09-24T03:28:19.026Z,429.93
2018-09-24T03:30:58.158Z,180.17
2018-09-24T03:33:39.420Z,153.53
2018-09-24T03:36:18.658Z,667.47
2018-09-24T03:38:57.855Z,555.10
2018-09-24T03:41:36.060Z,215.90
2018-09-24T03:44:14.324Z,97.47
2018-09-24T03:46:54.279Z,665.03
2018-09-24T03:49:32.681Z,358.43
2018-09-24T03:52:11.523Z,135.13
2018-09-24T03:54:54.114Z,346.63
2018-09-24T03:57:33.464Z,320.77
2018-09-24T04:00:11.416Z,619.17
2018-09-24T04:02:50.437Z,339.53
2018-09-24T04:05:33.177Z,400.63
2018-09-24T04:08:18.861Z,269.77
2018-09-24T04:11:01.483Z,391.90
2018-09-24T04:13:44.802Z,426.40
2018-09-24T04:16:28.200Z,408.83
2018-09-24T04:19:11.817Z,174.33
2018-09-24T04:21:54.980Z,92.07
2018-09-24T04:24:36.464Z,47.37
2018-09-24T04:27:22.001Z,118.63
2018-09-24T04:30:06.221Z,49.87
2018-09-24T04:32:50.097Z,47.43
2018-09-24T04:35:33.941Z,50.87
2018-09-24T04:38:16.600Z,129.37
2018-09-24T04:40:58.921Z,74.20
2018-09-24T04:43:40.745Z,60.23
2018-09-24T04:46:25.517Z,126.20
2018-09-24T04:49:08.399Z,60.13
2018-09-24T04:51:51.181Z,41.43
2018-09-24T04:54:33.701Z,80.97
2018-09-24T04:57:16.940Z,100.30
2018-09-24T04:59:58.924Z,129.27
2018-09-24T05:02:41.356Z,147.17
2018-09-24T05:05:25.283Z,128.23
2018-09-24T05:08:08.597Z,213.17
2018-09-24T05:10:51.521Z,72.13
2018-09-24T05:13:33.758Z,84.03
2018-09-24T05:16:18.178Z,55.63
2018-09-24T05:19:02.080Z,75.40
2018-09-24T05:21:46.064Z,48.40
2018-09-24T05:24:29.876Z,497.80
2018-09-24T05:27:14.742Z,565.93
2018-09-24T05:29:56.642Z,656.00
2018-09-24T05:32:41.000Z,537.03
2018-09-24T05:35:24.382Z,482.00
2018-09-24T05:38:08.176Z,265.53
2018-09-24T05:40:51.162Z,372.03
2018-09-24T05:43:33.759Z,149.97
2018-09-24T05:46:19.444Z,210.67
2018-09-24T05:49:03.362Z,455.47
2018-09-24T05:51:47.439Z,609.50
2018-09-24T05:54:29.418Z,381.03
2018-09-24T05:57:12.277Z,548.07
2018-09-24T05:59:53.539Z,400.80
2018-09-24T06:02:34.320Z,511.17
2018-09-24T06:05:18.062Z,496.27
2018-09-24T06:08:01.539Z,345.13
2018-09-24T06:10:46.638Z,483.33
2018-09-24T06:13:30.916Z,172.20
2018-09-24T06:16:14.625Z,175.10
2018-09-24T06:18:56.112Z,158.37
2018-09-24T06:21:38.478Z,296.27
2018-09-24T06:24:21.434Z,201.43
2018-09-24T06:27:04.877Z,376.67
2018-09-24T06:29:48.480Z,593.97
2018-09-24T06:32:32.261Z,505.90
2018-09-24T06:35:15.403Z,506.63
2018-09-24T06:37:58.262Z,306.10
2018-09-24T06:40:52.300Z,76.63
2018-09-24T06:43:37.336Z,196.30
2018-09-24T06:46:21.218Z,259.93
2018-09-24T06:49:03.615Z,355.10
2018-09-24T06:51:46.362Z,491.00
2018-09-24T06:54:31.636Z,606.23
2018-09-24T06:57:16.257Z,579.30
2018-09-24T06:59:59.357Z,450.90
2018-09-24T07:02:44.397Z,152.73
2018-09-24T07:05:29.918Z,496.63
2018-09-24T07:08:12.704Z,166.10
2018-09-24T07:10:55.454Z,415.37
2018-09-24T07:13:38.498Z,261.70
2018-09-24T07:16:22.679Z,326.13
2018-09-24T07:19:04.424Z,600.30
2018-09-24T07:21:49.298Z,46.67
2018-09-24T07:24:32.943Z,24.37
2018-09-24T07:27:16.797Z,162.40
2018-09-24T07:29:57.181Z,352.87
2018-09-24T07:32:41.622Z,421.67
2018-09-24T07:35:26.641Z,405.90
2018-09-24T07:38:11.339Z,409.23
2018-09-24T07:40:53.999Z,486.60
2018-09-24T07:43:37.369Z,325.73
2018-09-24T07:46:18.916Z,384.07
2018-09-24T07:49:04.861Z,468.03
2018-09-24T07:51:50.038Z,317.90
2018-09-24T07:54:31.901Z,304.43
2018-09-24T07:57:15.116Z,405.07
2018-09-24T07:59:55.738Z,362.73
2018-09-24T08:02:40.011Z,161.27
2018-09-24T08:05:22.079Z,431.93
2018-09-24T08:08:02.697Z,424.37
2018-09-24T08:10:50.755Z,256.97
2018-09-24T08:13:31.337Z,298.10
2018-09-24T08:16:18.003Z,227.60
2018-09-24T08:18:59.900Z,45.73
2018-09-24T08:21:40.699Z,26.43
2018-09-24T08:24:24.140Z,34.37
2018-09-24T08:27:06.496Z,22.00
2018-09-24T08:29:51.355Z,21.17
2018-09-24T08:32:35.257Z,38.73
2018-09-24T08:35:17.706Z,27.53
2018-09-24T08:38:05.677Z,146.83
2018-09-24T08:40:50.142Z,49.13
2018-09-24T08:43:33.796Z,125.27
2018-09-24T08:46:18.137Z,57.10
2018-09-24T08:49:05.083Z,181.47
2018-09-24T08:51:47.055Z,27.80
2018-09-24T08:54:30.280Z,35.73
2018-09-24T08:57:18.928Z,41.60
2018-09-24T09:00:02.298Z,162.70
2018-09-24T09:02:47.092Z,46.67
2018-09-24T09:05:29.878Z,122.27
2018-09-24T09:08:12.179Z,78.23
2018-09-24T09:10:56.219Z,53.27
2018-09-24T09:13:38.862Z,19.90
2018-09-24T09:16:23.959Z,19.57
2018-09-24T09:19:07.019Z,75.13
2018-09-24T09:21:52.378Z,80.60
2018-09-24T09:24:36.217Z,60.27
2018-09-24T09:27:27.682Z,45.10
2018-09-24T09:30:17.079Z,48.70
2018-09-24T09:33:03.313Z,37.73
2018-09-24T09:35:52.840Z,21.77
2018-09-24T09:38:35.839Z,22.37
2018-09-24T09:41:20.840Z,24.83
2018-09-24T09:44:04.815Z,25.53
2018-09-24T09:46:48.649Z,24.77
2018-09-24T09:49:34.303Z,24.03
2018-09-24T09:52:20.504Z,22.27
2018-09-24T09:55:02.759Z,48.53
2018-09-24T09:57:43.699Z,27.60
2018-09-24T10:00:25.480Z,29.23
2018-09-24T10:03:06.859Z,27.37
2018-09-24T10:05:52.022Z,35.33
2018-09-24T10:08:35.262Z,25.17
2018-09-24T10:11:22.240Z,21.70
2018-09-24T10:14:03.521Z,26.40
2018-09-24T10:16:48.015Z,47.60
2018-09-24T10:19:33.901Z,25.50
2018-09-24T10:22:15.858Z,126.87
2018-09-24T10:25:03.460Z,274.87
2018-09-24T10:27:44.138Z,201.47
2018-09-24T10:30:29.219Z,353.93
2018-09-24T10:33:11.998Z,370.40
2018-09-24T10:36:00.259Z,163.53
2018-09-24T10:38:45.002Z,26.30
2018-09-24T10:41:28.123Z,221.90
2018-09-24T10:44:24.016Z,25.73
2018-09-24T10:47:14.317Z,87.97
2018-09-24T10:49:59.263Z,60.60
2018-09-24T10:52:39.822Z,228.00
2018-09-24T10:55:20.920Z,247.70
2018-09-24T10:58:01.755Z,208.27
2018-09-24T11:00:46.419Z,322.47
2018-09-24T11:03:31.777Z,65.73
2018-09-24T11:06:15.680Z,282.57
2018-09-24T11:08:59.458Z,217.43
2018-09-24T11:11:42.999Z,268.90
2018-09-24T11:14:24.999Z,128.57
2018-09-24T11:17:16.377Z,161.10
2018-09-24T11:19:57.416Z,330.53
2018-09-24T11:22:41.414Z,190.97
2018-09-24T11:25:25.439Z,355.83
2018-09-24T11:28:14.861Z,197.90
2018-09-24T11:30:58.503Z,151.83
2018-09-24T11:33:41.736Z,175.17
2018-09-24T11:36:24.778Z,143.13
2018-09-24T11:39:10.754Z,118.63
2018-09-24T11:41:55.324Z,99.03
2018-09-24T11:44:40.322Z,88.97
2018-09-24T11:47:24.494Z,70.73
2018-09-24T11:50:09.136Z,83.67
2018-09-24T11:52:54.957Z,107.00
2018-09-24T11:55:39.843Z,106.13
2018-09-24T11:58:25.861Z,106.23
2018-09-24T12:01:11.801Z,100.60
2018-09-24T12:03:52.680Z,40.83
2018-09-24T12:06:36.639Z,86.27
2018-09-24T12:09:30.518Z,61.33
2018-09-24T12:12:12.158Z,88.60
2018-09-24T12:14:54.119Z,61.73
2018-09-24T12:17:36.162Z,48.23
2018-09-24T12:20:17.524Z,104.13
2018-09-24T12:23:01.078Z,65.50
2018-09-24T12:25:45.280Z,78.90
2018-09-24T12:28:29.984Z,84.70
2018-09-24T12:31:16.737Z,62.90
2018-09-24T12:33:59.157Z,26.43
2018-09-24T12:36:42.101Z,23.67
2018-09-24T12:39:26.398Z,19.87
2018-09-24T12:42:11.698Z,18.43
2018-09-24T12:44:53.877Z,17.70
2018-09-24T12:47:34.453Z,19.63
2018-09-24T12:50:18.165Z,20.77
2018-09-24T12:53:01.456Z,19.33
2018-09-24T12:55:46.391Z,20.50
2018-09-24T12:58:29.864Z,18.67
2018-09-24T13:01:18.015Z,17.23
2018-09-24T13:04:04.157Z,19.10
2018-09-24T13:06:47.276Z,17.77
2018-09-24T13:09:30.538Z,17.20
2018-09-24T13:12:14.163Z,17.07
2018-09-24T13:14:59.641Z,16.90
2018-09-24T13:17:40.060Z,15.93
2018-09-24T13:20:22.645Z,17.07
2018-09-24T13:23:07.507Z,16.10
2018-09-24T13:25:54.044Z,17.13
2018-09-24T13:28:35.262Z,16.37
2018-09-24T13:31:21.123Z,16.00
2018-09-24T13:34:14.476Z,16.83
2018-09-24T13:37:01.302Z,17.40
2018-09-24T13:39:45.284Z,16.83
2018-09-24T13:42:29.445Z,16.67
2018-09-24T13:45:12.449Z,16.40
2018-09-24T13:47:54.799Z,16.73
2018-09-24T13:50:36.199Z,17.57
2018-09-24T13:53:19.163Z,20.60
2018-09-24T13:56:02.325Z,24.33
2018-09-24T13:58:44.982Z,27.80
2018-09-24T14:01:26.294Z,28.03
2018-09-24T14:04:09.240Z,29.50
2018-09-24T14:06:51.578Z,33.70
2018-09-24T14:09:33.898Z,27.13
2018-09-24T14:12:18.973Z,24.03
2018-09-24T14:15:02.398Z,17.73
2018-09-24T14:17:44.837Z,19.93
2018-09-24T14:20:32.037Z,18.03
2018-09-24T14:23:13.155Z,19.20
2018-09-24T14:25:59.326Z,18.20
2018-09-24T14:28:41.000Z,19.47
2018-09-24T14:31:23.577Z,17.57
2018-09-24T14:34:06.366Z,64.85
2018-09-24T14:36:47.738Z,24.10
2018-09-24T14:39:31.117Z,26.90
2018-09-24T14:42:12.597Z,18.00
2018-09-24T14:44:53.957Z,22.30
2018-09-24T14:47:35.898Z,18.30
2018-09-24T14:50:19.317Z,28.47
2018-09-24T14:53:03.534Z,35.30
2018-09-24T14:55:44.982Z,17.70
2018-09-24T14:58:26.637Z,49.95
2018-09-24T15:01:09.584Z,17.00
2018-09-24T15:03:51.542Z,16.90
2018-09-24T15:06:35.746Z,25.20
2018-09-24T15:09:19.359Z,17.80
2018-09-24T15:12:05.601Z,18.63
2018-09-24T15:14:49.340Z,24.60
2018-09-24T15:17:31.843Z,16.60
2018-09-24T15:20:16.941Z,17.20
2018-09-24T15:23:01.554Z,17.87
2018-09-24T15:25:47.958Z,17.13
2018-09-24T15:28:34.915Z,16.67
2018-09-24T15:31:16.876Z,20.27
2018-09-24T15:33:58.122Z,17.23
2018-09-24T15:36:44.420Z,18.07
2018-09-24T15:39:38.138Z,16.30
2018-09-24T15:42:20.982Z,18.67
2018-09-24T15:45:10.262Z,17.23
2018-09-24T15:47:51.483Z,20.83
2018-09-24T15:50:36.057Z,18.33
2018-09-24T15:53:20.356Z,18.70
2018-09-24T15:56:02.500Z,19.50
2018-09-24T15:58:48.020Z,20.33
2018-09-24T16:01:31.522Z,19.47
2018-09-24T16:04:17.322Z,23.43
2018-09-24T16:07:01.043Z,28.70
2018-09-24T16:09:42.556Z,28.00
2018-09-24T16:12:25.738Z,20.97
2018-09-24T16:15:09.462Z,24.00
2018-09-24T16:17:53.823Z,23.80
2018-09-24T16:20:39.224Z,27.17
2018-09-24T16:23:23.718Z,32.50
2018-09-24T16:26:09.976Z,38.70
2018-09-24T16:28:51.714Z,40.40
2018-09-24T16:31:34.636Z,46.83
2018-09-24T16:34:18.659Z,62.27
2018-09-24T16:37:02.577Z,76.63
2018-09-24T16:39:42.503Z,49.97
2018-09-24T16:42:28.647Z,178.13
2018-09-24T16:45:12.195Z,80.57
2018-09-24T16:47:56.918Z,136.70
2018-09-24T16:50:42.283Z,70.27
2018-09-24T16:53:31.979Z,84.33
2018-09-24T16:56:14.663Z,79.77
2018-09-24T16:58:59.858Z,152.07
2018-09-24T17:01:45.838Z,88.07
2018-09-24T17:04:32.056Z,74.07
2018-09-24T17:07:13.543Z,62.30
2018-09-24T17:09:57.619Z,120.10
2018-09-24T17:12:42.261Z,227.87
2018-09-24T17:15:37.599Z,312.87
2018-09-24T17:18:22.161Z,348.50
2018-09-24T17:21:05.256Z,373.60
2018-09-24T17:23:49.180Z,270.07
2018-09-24T17:26:32.002Z,328.90
2018-09-24T17:29:17.844Z,363.00
2018-09-24T17:32:01.077Z,373.23
2018-09-24T17:34:45.257Z,348.23
2018-09-24T17:37:26.819Z,375.70
2018-09-24T17:40:09.360Z,377.93
2018-09-24T17:42:52.684Z,341.63
2018-09-24T17:45:35.897Z,307.53
2018-09-24T17:48:20.675Z,254.03
2018-09-24T17:51:02.318Z,256.20
2018-09-24T17:53:44.176Z,40.50
2018-09-24T17:56:25.879Z,33.67
2018-09-24T17:59:08.803Z,30.40
2018-09-24T18:01:51.762Z,21.67
2018-09-24T18:04:37.041Z,21.53
2018-09-24T18:07:19.783Z,19.90
2018-09-24T18:10:04.078Z,22.57
2018-09-24T18:12:45.595Z,21.07
2018-09-24T18:15:28.694Z,21.27
2018-09-24T18:18:12.422Z,28.63
2018-09-24T18:20:56.577Z,29.13
2018-09-24T18:23:37.277Z,36.13
2018-09-24T18:26:20.504Z,42.13
2018-09-24T18:29:04.398Z,62.00
2018-09-24T18:31:49.696Z,73.20
2018-09-24T18:34:34.995Z,92.53
2018-09-24T18:37:20.775Z,90.30
2018-09-24T18:40:04.339Z,100.70
2018-09-24T18:42:45.538Z,101.93
2018-09-24T18:45:28.452Z,155.73
2018-09-24T18:48:13.479Z,132.57
2018-09-24T18:50:58.340Z,137.80
2018-09-24T18:53:40.275Z,158.13
2018-09-24T18:56:22.942Z,184.27
2018-09-24T18:59:07.817Z,182.77
2018-09-24T19:01:51.643Z,221.03
2018-09-24T19:04:34.042Z,246.03
2018-09-24T19:07:17.685Z,213.53
2018-09-24T19:10:00.620Z,132.83
2018-09-24T19:12:42.536Z,229.40
2018-09-24T19:15:25.443Z,179.40
2018-09-24T19:18:09.940Z,140.50
2018-09-24T19:20:52.545Z,86.43
2018-09-24T19:23:34.604Z,120.53
2018-09-24T19:26:20.518Z,50.10
2018-09-24T19:29:01.722Z,52.60
2018-09-24T19:31:45.112Z,18.67
2018-09-24T19:34:27.899Z,19.13
2018-09-24T19:37:10.680Z,18.57
2018-09-24T19:39:53.878Z,18.20
2018-09-24T19:42:37.318Z,17.50
2018-09-24T19:45:19.542Z,18.37
2018-09-24T19:48:02.438Z,21.17
2018-09-24T19:50:44.197Z,17.43
2018-09-24T19:53:27.777Z,19.37
2018-09-24T19:56:10.218Z,19.80
2018-09-24T19:58:53.022Z,18.13
2018-09-24T20:01:38.595Z,20.47
2018-09-24T20:04:20.717Z,20.40
2018-09-24T20:07:05.221Z,27.43
2018-09-24T20:09:48.238Z,22.27
2018-09-24T20:12:30.644Z,26.10
2018-09-24T20:15:13.379Z,26.23
2018-09-24T20:17:57.063Z,26.93
2018-09-24T20:20:39.801Z,25.40
2018-09-24T20:23:22.257Z,27.47
2018-09-24T20:26:04.304Z,28.90
2018-09-24T20:28:46.660Z,35.03
2018-09-24T20:31:30.100Z,36.17
2018-09-24T20:34:12.918Z,41.07
2018-09-24T20:36:59.440Z,46.77
2018-09-24T20:39:42.463Z,45.63
2018-09-24T20:42:29.655Z,50.77
2018-09-24T20:45:11.321Z,49.17
2018-09-24T20:47:53.920Z,60.40
2018-09-24T20:50:35.878Z,61.60
2018-09-24T20:53:19.155Z,62.93
2018-09-24T20:56:01.521Z,65.47
2018-09-24T20:58:43.036Z,50.37
2018-09-24T21:01:26.060Z,52.87
2018-09-24T21:04:08.619Z,46.93
2018-09-24T21:06:51.537Z,45.27
2018-09-24T21:09:34.921Z,51.37
2018-09-24T21:12:16.277Z,53.77
2018-09-24T21:14:58.445Z,41.07
2018-09-24T21:17:40.741Z,37.90
2018-09-24T21:20:23.746Z,31.07
2018-09-24T21:23:08.699Z,41.53
2018-09-24T21:25:51.014Z,25.53
2018-09-24T21:28:33.500Z,25.20
2018-09-24T21:31:16.625Z,23.20
2018-09-24T21:34:00.079Z,23.43
2018-09-24T21:36:42.556Z,32.37
2018-09-24T21:39:28.029Z,23.53
2018-09-24T21:42:10.618Z,22.73
2018-09-24T21:44:53.728Z,22.63
2018-09-24T21:47:36.299Z,22.70
2018-09-24T21:50:19.241Z,22.80
2018-09-24T21:53:00.795Z,28.03
2018-09-24T21:55:44.291Z,26.90
2018-09-24T21:58:26.775Z,31.67
2018-09-24T22:01:08.757Z,44.53
2018-09-24T22:03:50.379Z,41.00
2018-09-24T22:06:34.999Z,64.43
2018-09-24T22:09:19.617Z,76.47
2018-09-24T22:12:01.916Z,75.27
2018-09-24T22:14:45.123Z,66.43
2018-09-24T22:17:28.860Z,78.57
2018-09-24T22:20:12.738Z,97.03
2018-09-24T22:22:56.862Z,52.77
2018-09-24T22:25:40.079Z,49.73
2018-09-24T22:28:23.027Z,66.77
2018-09-24T22:31:05.280Z,47.97
2018-09-24T22:33:49.962Z,43.13
2018-09-24T22:36:33.256Z,45.77
2018-09-24T22:39:18.260Z,49.03
2018-09-24T22:42:00.042Z,45.80
2018-09-24T22:44:42.401Z,62.37
2018-09-24T22:47:24.022Z,51.23
2018-09-24T22:50:06.339Z,57.73
2018-09-24T22:52:48.200Z,46.13
2018-09-24T22:55:31.679Z,43.27
2018-09-24T22:58:14.582Z,40.93
2018-09-24T23:00:56.578Z,52.17
2018-09-24T23:03:39.402Z,50.70
2018-09-24T23:06:21.795Z,50.90
2018-09-24T23:09:06.078Z,51.87
2018-09-24T23:11:48.861Z,50.70
2018-09-24T23:14:31.742Z,60.87
2018-09-24T23:17:14.021Z,83.83
2018-09-24T23:19:58.316Z,90.57
2018-09-24T23:22:40.420Z,92.83
2018-09-24T23:25:22.801Z,106.33
2018-09-24T23:28:04.995Z,117.37
2018-09-24T23:30:49.919Z,127.07
2018-09-24T23:33:31.503Z,173.53
2018-09-24T23:36:15.801Z,108.73
2018-09-24T23:38:57.675Z,162.83
2018-09-24T23:41:40.020Z,150.17
2018-09-24T23:44:21.841Z,139.93
2018-09-24T23:47:04.438Z,127.33
2018-09-24T23:49:47.423Z,123.00
2018-09-24T23:52:29.939Z,122.43
2018-09-24T23:55:12.280Z,115.13
2018-09-24T23:57:55.443Z,114.00
